Time;durP1;ratioP1;P1;durP2;ratioP2;P2;SDS_P1;SDS_P2;PMS_P1;PMS_P2;Temp;Humidity;BMP_temperature;BMP_pressure;BME280_temperature;BME280_humidity;BME280_pressure;Samples;Min_cycle;Max_cycle;Signal;HPM_P1;HPM_P2
2023/06/08 00:00:58;;;;;;;22.30;9.90;;;;;;;10.84;100.00;101896.91;7403855;19;20418;-47
2023/06/08 00:03:29;;;;;;;31.63;10.40;;;;;;;10.84;100.00;101894.34;7377077;19;20470;-46
2023/06/08 00:06:01;;;;;;;26.00;11.10;;;;;;;11.41;100.00;101873.47;7403102;19;20798;-46
2023/06/08 00:08:31;;;;;;;28.80;13.10;;;;;;;11.32;100.00;101876.41;7377282;19;20526;-46
2023/06/08 00:11:01;;;;;;;33.17;13.47;;;;;;;11.43;100.00;101869.25;7403305;19;20401;-46
2023/06/08 00:13:31;;;;;;;28.20;12.77;;;;;;;11.02;100.00;101883.31;7376128;19;20435;-46
2023/06/08 00:16:03;;;;;;;28.20;13.17;;;;;;;11.02;100.00;101886.75;7404803;19;20412;-46
2023/06/08 00:18:36;;;;;;;48.20;22.43;;;;;;;11.50;100.00;101874.75;7376126;19;20459;-47
2023/06/08 00:21:08;;;;;;;33.30;16.53;;;;;;;11.63;100.00;101882.41;7402391;19;20467;-45
2023/06/08 00:23:38;;;;;;;29.47;13.20;;;;;;;11.30;100.00;101908.13;7377547;19;20449;-47
2023/06/08 00:26:07;;;;;;;24.73;13.20;;;;;;;11.13;100.00;101915.78;7403154;19;20417;-45
2023/06/08 00:28:37;;;;;;;26.13;11.20;;;;;;;11.14;100.00;101920.19;7377434;19;20463;-46
2023/06/08 00:31:07;;;;;;;22.10;10.80;;;;;;;11.02;100.00;101924.63;7403224;19;20414;-45
2023/06/08 00:33:37;;;;;;;28.53;10.73;;;;;;;10.93;100.00;101923.25;7378486;19;20506;-46
2023/06/08 00:36:09;;;;;;;26.83;10.77;;;;;;;11.01;100.00;101921.13;7404447;19;20435;-47
2023/06/08 00:38:39;;;;;;;31.87;12.23;;;;;;;10.84;100.00;101922.72;7374221;19;20473;-46
2023/06/08 00:41:09;;;;;;;28.40;11.63;;;;;;;10.72;100.00;101912.56;7402155;19;20444;-46
2023/06/08 00:43:38;;;;;;;27.13;10.30;;;;;;;10.60;100.00;101911.81;7375440;19;20469;-47
2023/06/08 00:46:08;;;;;;;29.83;12.90;;;;;;;10.56;100.00;101904.72;7405589;19;20939;-47
2023/06/08 00:48:38;;;;;;;32.17;11.40;;;;;;;10.48;100.00;101901.66;7375006;19;20883;-45
2023/06/08 00:51:10;;;;;;;34.23;11.30;;;;;;;10.34;100.00;101896.53;7402305;19;20484;-47
2023/06/08 00:53:40;;;;;;;22.23;11.07;;;;;;;10.50;100.00;101889.72;7378384;19;20815;-46
2023/06/08 00:56:11;;;;;;;30.37;12.00;;;;;;;10.49;100.00;101877.63;7402909;19;20415;-46
2023/06/08 00:58:40;;;;;;;30.07;11.70;;;;;;;10.64;100.00;101873.41;7375509;19;20458;-46
2023/06/08 01:01:12;;;;;;;32.23;11.93;;;;;;;10.50;100.00;101879.41;7402950;19;20406;-46
2023/06/08 01:03:41;;;;;;;28.87;11.73;;;;;;;10.62;100.00;101864.66;7377762;19;20465;-47
2023/06/08 01:06:16;;;;;;;26.67;11.33;;;;;;;10.46;100.00;101872.31;7402500;19;20417;-45
2023/06/08 01:08:55;;;;;;;32.03;11.60;;;;;;;10.53;100.00;101874.44;7375251;19;20523;-46
2023/06/08 01:11:33;;;;;;;34.40;12.10;;;;;;;10.52;100.00;101877.84;7402870;19;20421;-45
2023/06/08 01:14:12;;;;;;;28.07;11.83;;;;;;;10.43;100.00;101874.69;7379532;19;20477;-47
2023/06/08 01:16:49;;;;;;;28.40;12.33;;;;;;;10.18;100.00;101875.72;7377284;19;20507;-46
2023/06/08 01:19:23;;;;;;;29.17;12.20;;;;;;;9.97;100.00;101871.03;7400730;19;20461;-46
2023/06/08 01:22:12;;;;;;;27.87;11.67;;;;;;;9.97;100.00;101846.16;7376550;19;20379;-47
2023/06/08 01:24:50;;;;;;;31.43;10.67;;;;;;;9.89;100.00;101837.03;7401903;19;21037;-47
2023/06/08 01:27:20;;;;;;;18.40;11.00;;;;;;;9.85;100.00;101820.50;7375510;19;20428;-46
2023/06/08 01:29:51;;;;;;;28.63;12.13;;;;;;;9.70;100.00;101809.25;7402172;19;20404;-47
2023/06/08 01:32:21;;;;;;;25.50;13.13;;;;;;;9.65;100.00;101808.06;7376882;19;20934;-46
2023/06/08 01:34:51;;;;;;;30.60;12.03;;;;;;;9.53;100.00;101790.19;7400224;19;20408;-46
2023/06/08 01:37:26;;;;;;;30.67;12.57;;;;;;;9.56;100.00;101770.66;7374180;19;20503;-46
2023/06/08 01:40:03;;;;;;;27.60;12.30;;;;;;;9.58;100.00;101757.84;7399141;19;20415;-46
2023/06/08 01:42:34;;;;;;;33.70;11.70;;;;;;;9.52;100.00;101744.56;7374815;19;20451;-46
2023/06/08 01:45:09;;;;;;;24.60;12.83;;;;;;;9.57;100.00;101720.00;7400372;19;20408;-45
2023/06/08 01:47:41;;;;;;;30.53;13.33;;;;;;;9.43;100.00;101701.09;7374198;19;21027;-46
2023/06/08 01:50:11;;;;;;;29.07;12.90;;;;;;;9.38;100.00;101697.38;7400512;19;20923;-45
2023/06/08 01:52:41;;;;;;;27.53;12.40;;;;;;;9.53;100.00;101677.69;7375537;19;20407;-46
2023/06/08 01:55:19;;;;;;;27.77;12.50;;;;;;;9.75;100.00;101663.53;7400840;19;20764;-46
2023/06/08 01:57:48;;;;;;;26.97;14.47;;;;;;;9.67;100.00;101659.59;7371982;19;20455;-46
2023/06/08 02:00:20;;;;;;;28.60;12.97;;;;;;;9.56;100.00;101651.22;7400672;19;20424;-46
2023/06/08 02:02:49;;;;;;;23.87;13.03;;;;;;;9.66;100.00;101652.66;7372744;19;20426;-45
2023/06/08 02:05:19;;;;;;;25.07;12.27;;;;;;;9.88;100.00;101641.06;7399316;19;20416;-45
2023/06/08 02:07:49;;;;;;;51.60;14.23;;;;;;;9.65;100.00;101640.59;7372691;19;20557;-46
2023/06/08 02:10:23;;;;;;;30.83;13.57;;;;;;;9.40;100.00;101639.09;7400188;19;20428;-46
2023/06/08 02:12:52;;;;;;;50.93;14.17;;;;;;;9.44;100.00;101636.81;7381274;19;20463;-47
2023/06/08 02:15:22;;;;;;;26.43;14.37;;;;;;;9.16;100.00;101634.22;7404627;19;20407;-47
2023/06/08 02:17:51;;;;;;;29.07;12.73;;;;;;;9.10;100.00;101627.03;7378841;19;20996;-46
2023/06/08 02:20:21;;;;;;;31.37;12.83;;;;;;;9.39;100.00;101612.44;7405927;19;20960;-46
2023/06/08 02:22:51;;;;;;;31.67;14.43;;;;;;;9.38;100.00;101609.81;7379958;19;20431;-46
2023/06/08 02:25:23;;;;;;;27.63;13.37;;;;;;;9.40;100.00;101608.19;7406497;19;20404;-46
2023/06/08 02:27:53;;;;;;;30.33;12.57;;;;;;;9.30;100.00;101606.75;7379066;19;20446;-46
2023/06/08 02:30:23;;;;;;;43.47;13.13;;;;;;;9.20;100.00;101605.31;7405542;19;20407;-47
2023/06/08 02:32:53;;;;;;;26.50;11.97;;;;;;;9.12;100.00;101601.38;7380261;19;20447;-46
2023/06/08 02:35:23;;;;;;;87.07;39.50;;;;;;;9.03;100.00;101596.56;7406872;19;20411;-46
2023/06/08 02:37:52;;;;;;;49.10;14.80;;;;;;;9.16;100.00;101591.38;7376982;19;20459;-46
2023/06/08 02:40:24;;;;;;;85.40;41.43;;;;;;;9.14;100.00;101581.75;7405783;19;20420;-46
2023/06/08 02:42:54;;;;;;;19.30;10.80;;;;;;;8.87;100.00;101579.28;7379235;19;20506;-47
2023/06/08 02:45:24;;;;;;;20.70;11.27;;;;;;;8.75;100.00;101579.41;7407147;19;20420;-46
2023/06/08 02:47:53;;;;;;;53.93;12.20;;;;;;;8.78;100.00;101564.16;7378028;19;21014;-46
2023/06/08 02:50:23;;;;;;;26.37;10.53;;;;;;;8.61;100.00;101565.69;7406329;19;20471;-46
2023/06/08 02:52:53;;;;;;;43.43;12.20;;;;;;;8.70;100.00;101561.09;7379931;19;20442;-47
2023/06/08 02:55:25;;;;;;;43.17;19.50;;;;;;;8.87;100.00;101562.13;7407511;19;20930;-47
2023/06/08 02:57:56;;;;;;;28.23;12.90;;;;;;;8.89;100.00;101551.94;7377376;19;21073;-47
2023/06/08 03:00:26;;;;;;;34.00;15.80;;;;;;;8.78;100.00;101554.75;7405359;19;20418;-46
2023/06/08 03:02:56;;;;;;;33.07;14.10;;;;;;;8.78;100.00;101552.16;7379004;19;20986;-46
2023/06/08 03:05:26;;;;;;;125.93;14.17;;;;;;;8.71;100.00;101542.28;7405516;19;20439;-46
2023/06/08 03:07:59;;;;;;;25.30;13.07;;;;;;;8.57;100.00;101533.72;7377340;19;20819;-46
2023/06/08 03:10:31;;;;;;;33.20;12.07;;;;;;;8.57;100.00;101532.84;7408135;19;20947;-46
2023/06/08 03:13:01;;;;;;;23.23;12.90;;;;;;;8.51;100.00;101525.56;7378406;19;20516;-46
2023/06/08 03:15:33;;;;;;;37.93;15.47;;;;;;;8.54;100.00;101522.34;7405208;19;20420;-46
2023/06/08 03:18:02;;;;;;;33.73;13.20;;;;;;;8.68;100.00;101513.81;7378705;19;20526;-47
2023/06/08 03:20:32;;;;;;;41.00;13.73;;;;;;;8.63;100.00;101505.78;7407847;19;20428;-46
2023/06/08 03:23:01;;;;;;;26.57;12.07;;;;;;;8.64;100.00;101494.75;7378217;19;20962;-46
2023/06/08 03:25:34;;;;;;;41.60;13.43;;;;;;;8.63;100.00;101489.50;7404292;19;20935;-47
2023/06/08 03:28:03;;;;;;;30.70;13.53;;;;;;;8.63;100.00;101477.50;7376352;19;20462;-46
2023/06/08 03:30:33;;;;;;;27.40;13.83;;;;;;;8.69;100.00;101471.84;7404780;19;20475;-46
2023/06/08 03:33:05;;;;;;;35.10;13.70;;;;;;;8.67;100.00;101469.97;7379178;19;20432;-46
2023/06/08 03:35:35;;;;;;;26.37;13.83;;;;;;;8.75;100.00;101468.75;7404848;19;20396;-46
2023/06/08 03:38:05;;;;;;;27.33;14.53;;;;;;;9.02;100.00;101455.75;7376418;19;20443;-46
2023/06/08 03:40:37;;;;;;;27.23;13.87;;;;;;;8.81;100.00;101445.09;7404257;19;20415;-46
2023/06/08 03:43:07;;;;;;;54.23;15.83;;;;;;;8.88;100.00;101444.66;7376272;19;20462;-46
2023/06/08 03:45:37;;;;;;;30.57;15.27;;;;;;;8.76;100.00;101437.06;7404819;19;20429;-47
2023/06/08 03:48:07;;;;;;;37.73;15.60;;;;;;;8.76;100.00;101444.78;7376641;19;20439;-46
2023/06/08 03:50:36;;;;;;;29.53;15.40;;;;;;;8.68;100.00;101454.66;7407134;19;20437;-47
2023/06/08 03:53:06;;;;;;;29.70;14.90;;;;;;;8.79;100.00;101445.00;7378101;19;20439;-45
2023/06/08 03:55:38;;;;;;;29.13;15.43;;;;;;;9.02;100.00;101446.34;7402856;19;20954;-47
2023/06/08 03:58:07;;;;;;;27.37;15.10;;;;;;;9.28;100.00;101444.41;7375606;19;20461;-47
2023/06/08 04:00:37;;;;;;;97.03;50.90;;;;;;;9.30;100.00;101435.13;7405447;19;20826;-46
2023/06/08 04:03:06;;;;;;;36.80;19.73;;;;;;;9.29;100.00;101433.31;7376135;19;20518;-47
2023/06/08 04:05:37;;;;;;;37.43;15.60;;;;;;;9.21;100.00;101433.66;7403562;19;20487;-46
2023/06/08 04:08:06;;;;;;;119.80;61.83;;;;;;;9.52;100.00;101426.03;7374925;19;20451;-46
2023/06/08 04:10:39;;;;;;;84.47;43.33;;;;;;;9.75;100.00;101426.44;7404363;19;20395;-47
2023/06/08 04:13:08;;;;;;;28.83;15.80;;;;;;;9.70;100.00;101413.28;7376396;19;20528;-46
2023/06/08 04:15:38;;;;;;;40.80;21.87;;;;;;;10.23;100.00;101399.78;7406090;19;20396;-47
2023/06/08 04:18:08;;;;;;;35.40;19.60;;;;;;;10.12;100.00;101394.94;7375250;19;20569;-46
2023/06/08 04:20:37;;;;;;;29.80;16.90;;;;;;;10.30;100.00;101386.41;7402519;19;20458;-46
2023/06/08 04:23:07;;;;;;;29.83;15.23;;;;;;;10.03;100.00;101386.72;7375448;19;20441;-47
2023/06/08 04:25:39;;;;;;;30.53;16.03;;;;;;;10.33;100.00;101394.31;7401782;19;20408;-47
2023/06/08 04:28:08;;;;;;;27.70;15.40;;;;;;;10.30;100.00;101412.19;7374115;19;20537;-47
2023/06/08 04:30:38;;;;;;;26.83;15.00;;;;;;;10.05;100.00;101421.19;7403101;19;20448;-47
2023/06/08 04:33:08;;;;;;;29.00;16.17;;;;;;;9.85;100.00;101430.44;7378124;19;20888;-46
2023/06/08 04:35:38;;;;;;;27.83;15.50;;;;;;;10.04;100.00;101434.88;7402848;19;20426;-49
2023/06/08 04:38:14;;;;;;;28.90;15.03;;;;;;;9.97;100.00;101471.44;7372910;19;20447;-47
2023/06/08 04:40:53;;;;;;;27.57;14.87;;;;;;;10.58;100.00;101501.44;7403232;19;20405;-47
2023/06/08 04:43:25;;;;;;;25.83;14.07;;;;;;;10.69;100.00;101526.91;7374038;19;20990;-46
2023/06/08 04:45:57;;;;;;;25.17;14.87;;;;;;;10.32;100.00;101544.72;7401404;19;20418;-46
2023/06/08 04:48:27;;;;;;;31.73;14.03;;;;;;;9.95;100.00;101552.97;7374192;19;20454;-47
2023/06/08 04:51:01;;;;;;;31.07;15.47;;;;;;;9.81;100.00;101560.81;7402969;19;20424;-46
2023/06/08 04:53:33;;;;;;;31.87;13.90;;;;;;;9.98;100.00;101558.28;7376735;19;20443;-47
2023/06/08 04:56:06;;;;;;;35.37;16.00;;;;;;;10.17;100.00;101555.09;7401646;19;20409;-47
2023/06/08 04:58:36;;;;;;;30.60;15.30;;;;;;;10.33;100.00;101559.41;7375804;19;20492;-46
2023/06/08 05:01:05;;;;;;;31.03;15.50;;;;;;;10.35;100.00;101559.47;7402671;19;20425;-46
2023/06/08 05:03:35;;;;;;;26.90;15.00;;;;;;;9.95;100.00;101565.88;7374801;19;20466;-46
2023/06/08 05:06:05;;;;;;;31.20;16.47;;;;;;;9.89;100.00;101566.38;7402934;19;20453;-47
2023/06/08 05:08:34;;;;;;;30.20;16.23;;;;;;;10.12;100.00;101562.53;7374320;19;20458;-47
2023/06/08 05:11:06;;;;;;;32.00;16.77;;;;;;;9.89;100.00;101562.94;7401617;19;20497;-46
2023/06/08 05:13:36;;;;;;;29.97;16.33;;;;;;;9.79;100.00;101562.38;7374950;19;20444;-45
2023/06/08 05:16:06;;;;;;;32.73;16.87;;;;;;;9.69;100.00;101560.09;7401749;19;20442;-46
2023/06/08 05:18:36;;;;;;;58.10;29.63;;;;;;;9.96;100.00;101559.91;7374449;19;20820;-46
2023/06/08 05:21:06;;;;;;;36.30;17.87;;;;;;;9.83;100.00;101550.56;7402877;19;20417;-47
2023/06/08 05:23:35;;;;;;;53.10;24.13;;;;;;;9.98;100.00;101559.19;7374250;19;20565;-46
2023/06/08 05:26:08;;;;;;;36.20;17.13;;;;;;;9.95;100.00;101556.41;7400761;19;20409;-47
2023/06/08 05:28:37;;;;;;;46.77;25.40;;;;;;;10.15;100.00;101545.47;7375122;19;20459;-46
2023/06/08 05:31:07;;;;;;;36.80;16.27;;;;;;;9.76;100.00;101551.91;7400795;19;20460;-46
2023/06/08 05:33:36;;;;;;;34.27;15.20;;;;;;;9.60;100.00;101560.44;7375447;19;20996;-46
2023/06/08 05:36:06;;;;;;;32.10;16.77;;;;;;;9.71;100.00;101558.50;7402460;19;20405;-46
2023/06/08 05:38:36;;;;;;;38.57;17.60;;;;;;;9.66;100.00;101554.75;7372341;19;20464;-49
2023/06/08 05:41:08;;;;;;;38.10;17.30;;;;;;;9.45;100.00;101555.28;7400008;19;20424;-44
2023/06/08 05:43:38;;;;;;;33.57;16.23;;;;;;;9.62;100.00;101550.22;7373537;19;20463;-45
2023/06/08 05:46:07;;;;;;;36.13;17.33;;;;;;;9.66;100.00;101541.88;7401296;19;20395;-47
2023/06/08 05:48:37;;;;;;;40.03;21.80;;;;;;;9.74;100.00;101538.03;7372524;19;20451;-46
2023/06/08 05:51:07;;;;;;;38.73;20.77;;;;;;;10.15;100.00;101535.16;7402606;19;20428;-46
2023/06/08 05:53:38;;;;;;;68.17;35.17;;;;;;;10.20;100.00;101528.56;7373516;19;20526;-46
2023/06/08 05:56:10;;;;;;;70.07;35.73;;;;;;;10.37;100.00;101526.94;7401125;19;20428;-46
2023/06/08 05:58:40;;;;;;;30.87;16.30;;;;;;;10.16;100.00;101521.47;7373477;19;20477;-47
2023/06/08 06:01:17;;;;;;;50.60;26.17;;;;;;;10.33;100.00;101523.28;7400593;19;20490;-47
2023/06/08 06:03:46;;;;;;;36.97;16.00;;;;;;;10.06;100.00;101536.41;7374822;19;20434;-46
2023/06/08 06:06:16;;;;;;;30.90;16.87;;;;;;;10.45;100.00;101530.84;7400307;19;20443;-47
2023/06/08 06:08:46;;;;;;;32.40;16.20;;;;;;;10.24;100.00;101525.34;7373129;19;20462;-47
2023/06/08 06:11:18;;;;;;;30.23;15.17;;;;;;;10.10;100.00;101540.94;7398911;19;20953;-47
2023/06/08 06:13:47;;;;;;;28.70;15.30;;;;;;;10.30;100.00;101541.16;7373735;19;20880;-47
2023/06/08 06:16:17;;;;;;;36.70;16.20;;;;;;;10.30;100.00;101530.84;7399386;19;20402;-46
2023/06/08 06:18:47;;;;;;;66.80;33.33;;;;;;;10.62;100.00;101529.16;7372122;19;20499;-46
2023/06/08 06:21:17;;;;;;;34.20;16.63;;;;;;;10.60;100.00;101538.53;7401449;19;20937;-47
2023/06/08 06:23:47;;;;;;;34.73;15.43;;;;;;;10.57;100.00;101545.22;7371111;19;20443;-50
2023/06/08 06:26:19;;;;;;;38.47;15.70;;;;;;;10.32;100.00;101562.78;7398088;19;20401;-47
2023/06/08 06:28:49;;;;;;;35.13;14.73;;;;;;;10.23;100.00;101564.84;7371621;19;20451;-47
2023/06/08 06:31:18;;;;;;;30.97;15.80;;;;;;;10.09;100.00;101575.25;7401010;19;20412;-47
2023/06/08 06:33:48;;;;;;;39.37;17.90;;;;;;;10.29;100.00;101565.19;7375269;19;20437;-47
2023/06/08 06:36:18;;;;;;;33.60;15.87;;;;;;;10.15;100.00;101576.41;7399303;19;20420;-46
2023/06/08 06:38:47;;;;;;;40.90;16.30;;;;;;;10.22;100.00;101573.38;7371599;19;20460;-47
2023/06/08 06:41:20;;;;;;;39.07;16.73;;;;;;;10.35;100.00;101565.53;7400652;19;20467;-46
2023/06/08 06:43:50;;;;;;;47.30;17.37;;;;;;;10.69;100.00;101561.38;7372442;19;20465;-47
2023/06/08 06:46:21;;;;;;;47.27;23.30;;;;;;;10.98;100.00;101553.41;7397901;19;20419;-46
2023/06/08 06:48:51;;;;;;;30.67;16.30;;;;;;;10.86;100.00;101570.00;7371761;19;20473;-46
2023/06/08 06:51:21;;;;;;;45.43;17.43;;;;;;;10.83;100.00;101571.53;7398475;19;20421;-47
2023/06/08 06:53:50;;;;;;;38.37;18.27;;;;;;;10.97;100.00;101574.88;7372664;19;20441;-47
2023/06/08 06:56:23;;;;;;;235.10;131.90;;;;;;;11.47;100.00;101565.38;7396786;19;20433;-47
2023/06/08 06:58:52;;;;;;;73.13;27.30;;;;;;;11.89;100.00;101564.88;7375699;19;20465;-47
2023/06/08 07:01:23;;;;;;;46.93;20.50;;;;;;;11.56;100.00;101585.63;7400987;19;20406;-47
2023/06/08 07:03:53;;;;;;;65.47;33.07;;;;;;;12.02;100.00;101582.75;7375122;19;20450;-47
2023/06/08 07:06:24;;;;;;;40.03;20.27;;;;;;;12.22;100.00;101595.84;7401236;19;21317;-47
2023/06/08 07:08:54;;;;;;;38.50;17.33;;;;;;;11.97;100.00;101599.78;7374409;19;20484;-47
2023/06/08 07:11:26;;;;;;;33.13;15.77;;;;;;;11.82;100.00;101605.06;7402397;19;20828;-47
2023/06/08 07:13:57;;;;;;;36.40;20.23;;;;;;;11.84;100.00;101603.44;7378102;19;20455;-47
2023/06/08 07:16:26;;;;;;;35.53;16.90;;;;;;;11.90;100.00;101608.03;7405012;19;20400;-46
2023/06/08 07:18:56;;;;;;;51.30;19.90;;;;;;;11.97;100.00;101589.44;7374886;19;20491;-47
2023/06/08 07:21:26;;;;;;;35.20;16.80;;;;;;;11.91;100.00;101594.28;7401820;19;20438;-47
2023/06/08 07:24:10;;;;;;;31.33;15.80;;;;;;;12.13;100.00;101591.09;7379477;19;20440;-48
2023/06/08 07:27:02;;;;;;;69.17;32.30;;;;;;;12.29;100.00;101603.06;7376882;19;20398;-47
2023/06/08 07:29:32;;;;;;;42.43;19.60;;;;;;;12.51;100.00;101601.50;7400240;19;20462;-47
2023/06/08 07:32:02;;;;;;;53.73;23.30;;;;;;;12.68;100.00;101606.59;7376017;19;20395;-47
2023/06/08 07:34:32;;;;;;;71.87;28.30;;;;;;;12.76;100.00;101610.41;7400036;19;20481;-47
2023/06/08 07:37:01;;;;;;;34.90;18.40;;;;;;;12.90;100.00;101610.16;7373981;19;20853;-47
2023/06/08 07:39:31;;;;;;;33.90;17.63;;;;;;;13.03;100.00;101619.38;7398823;19;21013;-47
2023/06/08 07:42:03;;;;;;;35.47;17.83;;;;;;;13.15;100.00;101619.94;7375488;19;20404;-47
2023/06/08 07:44:33;;;;;;;46.23;20.50;;;;;;;13.03;100.00;101629.75;7399607;19;20473;-47
2023/06/08 07:47:03;;;;;;;41.13;21.63;;;;;;;13.15;100.00;101629.41;7374421;19;20445;-47
2023/06/08 07:49:32;;;;;;;41.10;17.30;;;;;;;13.37;100.00;101632.16;7399245;19;20861;-47
2023/06/08 07:52:02;;;;;;;32.90;15.90;;;;;;;13.60;100.00;101631.41;7374572;19;20402;-47
2023/06/08 07:54:32;;;;;;;28.13;15.00;;;;;;;13.74;100.00;101629.44;7399184;19;20443;-47
2023/06/08 07:57:04;;;;;;;77.90;34.07;;;;;;;13.80;100.00;101632.28;7373671;19;20404;-47
2023/06/08 07:59:33;;;;;;;26.47;14.07;;;;;;;13.98;100.00;101631.25;7399154;19;20448;-48
2023/06/08 08:02:03;;;;;;;43.90;21.90;;;;;;;14.10;100.00;101636.97;7374683;19;20421;-47
2023/06/08 08:04:32;;;;;;;30.67;15.37;;;;;;;14.23;100.00;101637.47;7399360;19;20439;-47
2023/06/08 08:07:02;;;;;;;38.03;19.37;;;;;;;14.33;100.00;101642.22;7373869;19;20402;-47
2023/06/08 08:09:32;;;;;;;26.57;14.00;;;;;;;14.41;100.00;101643.41;7397904;19;20439;-47
2023/06/08 08:12:05;;;;;;;27.83;14.87;;;;;;;14.54;100.00;101642.19;7374918;19;20423;-46
2023/06/08 08:14:34;;;;;;;32.70;16.73;;;;;;;14.72;100.00;101643.75;7398895;19;20411;-46
2023/06/08 08:17:04;;;;;;;33.53;15.00;;;;;;;14.84;100.00;101653.75;7374745;19;20390;-47
2023/06/08 08:19:34;;;;;;;92.20;39.97;;;;;;;15.02;100.00;101648.34;7399262;19;20446;-46
2023/06/08 08:22:03;;;;;;;60.67;29.40;;;;;;;15.09;100.00;101659.88;7375900;19;20439;-47
2023/06/08 08:24:33;;;;;;;28.17;13.90;;;;;;;15.16;100.00;101655.78;7401245;19;20419;-47
2023/06/08 08:27:06;;;;;;;22.97;13.47;;;;;;;15.17;100.00;101649.78;7372810;19;20415;-46
2023/06/08 08:29:35;;;;;;;35.63;13.53;;;;;;;15.38;100.00;101644.44;7398510;19;20444;-45
2023/06/08 08:32:06;;;;;;;26.53;13.20;;;;;;;15.60;100.00;101635.72;7374057;19;20387;-46
2023/06/08 08:34:36;;;;;;;42.47;21.33;;;;;;;15.66;100.00;101648.03;7399537;19;20407;-46
2023/06/08 08:37:06;;;;;;;21.07;12.67;;;;;;;15.81;100.00;101665.91;7372124;19;20399;-47
2023/06/08 08:39:35;;;;;;;60.03;29.27;;;;;;;15.85;100.00;101685.09;7392234;19;20534;-46
2023/06/08 08:42:09;;;;;;;28.90;16.07;;;;;;;16.02;100.00;101691.81;7374349;19;20448;-46
2023/06/08 08:44:39;;;;;;;36.90;15.57;;;;;;;16.26;100.00;101713.41;7399193;19;20455;-46
2023/06/08 08:47:10;;;;;;;30.50;16.30;;;;;;;16.39;100.00;101715.59;7373285;19;21252;-47
2023/06/08 08:49:42;;;;;;;32.63;16.13;;;;;;;16.30;100.00;101729.19;7400699;19;20452;-46
2023/06/08 08:52:12;;;;;;;27.20;14.67;;;;;;;16.32;100.00;101732.72;7375224;19;20743;-46
2023/06/08 08:54:42;;;;;;;27.07;14.90;;;;;;;16.65;100.00;101722.47;7400078;19;20420;-47
2023/06/08 08:57:14;;;;;;;39.60;20.53;;;;;;;16.86;100.00;101732.69;7374375;19;20406;-46
2023/06/08 08:59:47;;;;;;;31.30;15.03;;;;;;;16.79;100.00;101762.88;7400987;19;20483;-46
2023/06/08 09:02:16;;;;;;;25.53;15.43;;;;;;;17.09;100.00;101772.56;7377418;19;20402;-47
2023/06/08 09:04:47;;;;;;;25.60;12.70;;;;;;;17.26;100.00;101770.47;7401336;19;20430;-47
2023/06/08 09:07:20;;;;;;;28.90;13.10;;;;;;;17.37;100.00;101783.81;7374822;19;20393;-46
2023/06/08 09:10:21;;;;;;;30.07;15.80;;;;;;;17.46;100.00;101803.16;7401667;19;20424;-44
2023/06/08 09:12:57;;;;;;;60.23;28.83;;;;;;;17.61;100.00;101811.47;7372640;19;20436;-46
2023/06/08 09:15:31;;;;;;;27.83;15.07;;;;;;;17.81;100.00;101822.47;7401496;19;20415;-46
2023/06/08 09:18:04;;;;;;;34.27;19.40;;;;;;;18.00;100.00;101822.13;7372827;19;20458;-46
2023/06/08 09:20:35;;;;;;;48.63;25.20;;;;;;;18.06;100.00;101851.91;7399587;19;20410;-46
2023/06/08 09:23:16;;;;;;;54.00;26.50;;;;;;;18.22;100.00;101855.84;7374227;19;20427;-46
2023/06/08 09:25:47;;;;;;;42.23;24.47;;;;;;;18.35;100.00;101866.63;7403366;19;20406;-46
2023/06/08 09:28:24;;;;;;;40.60;21.57;;;;;;;18.18;100.00;101874.91;7372610;19;20447;-44
2023/06/08 09:31:00;;;;;;;28.43;17.13;;;;;;;18.36;100.00;101876.25;7399680;19;20435;-45
2023/06/08 09:33:32;;;;;;;38.20;16.60;;;;;;;18.63;100.00;101890.88;7373501;19;20419;-46
2023/06/08 09:36:15;;;;;;;31.73;18.90;;;;;;;18.86;100.00;101898.41;7401816;19;20411;-45
2023/06/08 09:38:46;;;;;;;48.40;27.37;;;;;;;18.74;100.00;101920.81;7365234;19;20455;-47
2023/06/08 09:41:17;;;;;;;70.53;31.33;;;;;;;18.65;100.00;101927.53;7399949;19;20410;-46
2023/06/08 09:43:51;;;;;;;35.00;18.37;;;;;;;18.81;100.00;101928.81;7374982;19;20451;-46
2023/06/08 09:46:35;;;;;;;30.80;17.67;;;;;;;18.90;100.00;101921.19;7400902;19;20420;-46
2023/06/08 09:49:07;;;;;;;30.20;15.87;;;;;;;19.30;100.00;101924.81;7377035;19;20479;-46
2023/06/08 09:51:39;;;;;;;24.93;15.90;;;;;;;19.60;100.00;101927.25;7372631;19;20418;-45
2023/06/08 09:54:10;;;;;;;28.43;17.53;;;;;;;19.70;100.00;101944.94;7399473;19;20415;-46
2023/06/08 09:56:40;;;;;;;28.53;15.97;;;;;;;19.74;100.00;101943.28;7374378;19;20407;-47
2023/06/08 09:59:16;;;;;;;25.90;15.30;;;;;;;19.92;100.00;101937.56;7399434;19;20459;-46
2023/06/08 10:01:49;;;;;;;22.70;15.10;;;;;;;20.05;100.00;101921.28;7376704;19;20419;-45
2023/06/08 10:04:25;;;;;;;24.03;15.00;;;;;;;20.20;100.00;101906.75;7399097;19;20414;-46
2023/06/08 10:06:58;;;;;;;25.20;13.80;;;;;;;20.34;100.00;101854.59;7373063;19;20399;-45
2023/06/08 10:09:31;;;;;;;25.00;15.10;;;;;;;20.31;100.00;101808.25;7399417;19;20454;-46
2023/06/08 10:12:02;;;;;;;30.77;13.10;;;;;;;20.05;100.00;101769.38;7374478;19;20399;-46
2023/06/08 10:14:35;;;;;;;20.53;12.40;;;;;;;20.59;100.00;101765.91;7399861;19;20399;-46
2023/06/08 10:17:06;;;;;;;26.50;16.20;;;;;;;20.58;100.00;101681.16;7372440;19;20403;-46
2023/06/08 10:19:38;;;;;;;44.67;23.60;;;;;;;20.59;100.00;101627.88;7397585;19;20570;-46
2023/06/08 10:22:08;;;;;;;23.37;15.20;;;;;;;20.83;100.00;101615.97;7376299;19;20453;-46
2023/06/08 10:24:38;;;;;;;18.87;11.93;;;;;;;21.09;100.00;101588.31;7399068;19;20421;-46
2023/06/08 10:27:20;;;;;;;17.63;10.17;;;;;;;21.27;100.00;101487.94;7374332;19;20984;-46
2023/06/08 10:29:58;;;;;;;19.60;9.00;;;;;;;21.48;100.00;101284.25;7401910;19;20412;-47
2023/06/08 10:32:35;;;;;;;14.67;8.47;;;;;;;21.55;100.00;101220.41;7377215;19;20402;-46
2023/06/08 10:35:06;;;;;;;17.70;9.90;;;;;;;21.53;100.00;101327.16;7405627;19;20409;-45
2023/06/08 10:37:38;;;;;;;13.40;7.23;;;;;;;21.65;100.00;101350.84;7379221;19;20394;-46
2023/06/08 10:40:13;;;;;;;13.93;8.20;;;;;;;21.82;100.00;101366.69;7402723;19;21027;-46
2023/06/08 10:42:53;;;;;;;18.80;10.93;;;;;;;21.72;100.00;101404.28;7380303;19;20788;-46
2023/06/08 10:45:38;;;;;;;12.77;8.03;;;;;;;21.84;100.00;101385.94;7407349;19;20995;-45
2023/06/08 10:48:10;;;;;;;13.00;7.70;;;;;;;21.90;100.00;101416.63;7378141;19;20446;-46
2023/06/08 10:50:40;;;;;;;20.80;7.30;;;;;;;21.95;100.00;101401.75;7404819;19;20425;-47
2023/06/08 10:53:10;;;;;;;12.57;5.87;;;;;;;22.11;100.00;101451.75;7380037;19;21132;-46
2023/06/08 10:55:40;;;;;;;10.80;5.00;;;;;;;22.02;100.00;101456.94;7409009;19;20436;-46
2023/06/08 10:58:18;;;;;;;10.83;5.77;;;;;;;22.10;100.00;101460.50;7379044;19;20447;-46
2023/06/08 11:00:53;;;;;;;19.57;6.80;;;;;;;22.04;100.00;101498.13;7405304;19;20937;-46
2023/06/08 11:03:26;;;;;;;12.87;4.80;;;;;;;22.39;100.00;101493.91;7378841;19;20974;-46
2023/06/08 11:05:56;;;;;;;11.23;5.77;;;;;;;22.37;100.00;101495.66;7404162;19;20934;-48
2023/06/08 11:08:26;;;;;;;8.50;4.70;;;;;;;22.63;100.00;101489.66;7377613;19;20541;-48
2023/06/08 11:10:57;;;;;;;14.27;4.97;;;;;;;22.74;100.00;101501.09;7406954;19;20417;-46
2023/06/08 11:13:27;;;;;;;14.30;4.67;;;;;;;22.71;100.00;101501.06;7377987;19;20432;-45
2023/06/08 11:16:00;;;;;;;14.17;5.00;;;;;;;22.82;100.00;101502.84;7404701;19;20820;-46
2023/06/08 11:18:32;;;;;;;11.37;5.10;;;;;;;22.14;100.00;101499.03;7376542;19;20466;-45
2023/06/08 11:21:02;;;;;;;14.30;5.80;;;;;;;22.37;100.00;101496.53;7404184;19;20400;-46
2023/06/08 11:23:34;;;;;;;12.67;4.80;;;;;;;22.59;100.00;101495.75;7376720;19;20455;-46